sensor_id;sensor_type;location;lat;lon;timestamp;P1;P2;P0
44933;PMS3003;30667;43.614;1.442;2023-02-01T00:00:11;30.80;27.00;17.40
44933;PMS3003;30667;43.614;1.442;2023-02-01T00:02:37;31.40;27.60;17.80
44933;PMS3003;30667;43.614;1.442;2023-02-01T00:05:06;31.40;30.00;19.60
44933;PMS3003;30667;43.614;1.442;2023-02-01T00:07:35;28.20;25.40;16.00
44933;PMS3003;30667;43.614;1.442;2023-02-01T00:10:02;26.80;24.00;16.60
44933;PMS3003;30667;43.614;1.442;2023-02-01T00:12:29;30.60;26.80;19.40
44933;PMS3003;30667;43.614;1.442;2023-02-01T00:14:54;31.80;28.00;18.60
44933;PMS3003;30667;43.614;1.442;2023-02-01T00:17:20;26.75;25.50;17.00
44933;PMS3003;30667;43.614;1.442;2023-02-01T00:19:45;27.00;24.50;16.75
44933;PMS3003;30667;43.614;1.442;2023-02-01T00:22:11;30.75;27.00;19.00
44933;PMS3003;30667;43.614;1.442;2023-02-01T00:24:36;27.00;25.25;16.00
44933;PMS3003;30667;43.614;1.442;2023-02-01T00:27:01;30.75;26.50;16.25
44933;PMS3003;30667;43.614;1.442;2023-02-01T00:29:27;31.00;29.25;16.75
44933;PMS3003;30667;43.614;1.442;2023-02-01T00:31:52;28.75;26.50;16.75
44933;PMS3003;30667;43.614;1.442;2023-02-01T00:34:18;29.00;26.00;18.75
44933;PMS3003;30667;43.614;1.442;2023-02-01T00:36:44;26.80;24.60;17.80
44933;PMS3003;30667;43.614;1.442;2023-02-01T00:39:10;29.00;26.20;16.80
44933;PMS3003;30667;43.614;1.442;2023-02-01T00:41:36;30.20;27.80;18.00
44933;PMS3003;30667;43.614;1.442;2023-02-01T00:44:02;29.80;26.20;17.40
44933;PMS3003;30667;43.614;1.442;2023-02-01T00:46:28;29.60;25.80;16.40
44933;PMS3003;30667;43.614;1.442;2023-02-01T00:48:54;28.50;26.00;18.00
44933;PMS3003;30667;43.614;1.442;2023-02-01T00:51:20;30.25;29.00;17.25
44933;PMS3003;30667;43.614;1.442;2023-02-01T00:53:48;26.80;26.40;18.80
44933;PMS3003;30667;43.614;1.442;2023-02-01T00:56:13;29.25;26.25;19.25
44933;PMS3003;30667;43.614;1.442;2023-02-01T00:58:40;28.80;24.80;16.20
44933;PMS3003;30667;43.614;1.442;2023-02-01T01:03:38;30.60;27.40;17.40
44933;PMS3003;30667;43.614;1.442;2023-02-01T01:06:07;29.20;29.00;19.20
44933;PMS3003;30667;43.614;1.442;2023-02-01T01:08:34;29.80;28.40;20.00
44933;PMS3003;30667;43.614;1.442;2023-02-01T01:11:11;36.60;32.20;21.80
44933;PMS3003;30667;43.614;1.442;2023-02-01T01:13:42;33.00;30.80;21.00
44933;PMS3003;30667;43.614;1.442;2023-02-01T01:16:09;31.80;28.80;21.20
44933;PMS3003;30667;43.614;1.442;2023-02-01T01:18:35;30.40;28.80;18.60
44933;PMS3003;30667;43.614;1.442;2023-02-01T01:21:01;33.00;29.60;19.60
44933;PMS3003;30667;43.614;1.442;2023-02-01T01:23:29;29.80;27.00;17.00
44933;PMS3003;30667;43.614;1.442;2023-02-01T01:25:55;25.75;25.25;17.00
44933;PMS3003;30667;43.614;1.442;2023-02-01T01:28:21;23.00;22.00;16.00
44933;PMS3003;30667;43.614;1.442;2023-02-01T01:30:46;30.00;28.00;18.25
44933;PMS3003;30667;43.614;1.442;2023-02-01T01:33:12;29.25;25.00;16.25
44933;PMS3003;30667;43.614;1.442;2023-02-01T01:35:37;28.00;25.50;17.00
44933;PMS3003;30667;43.614;1.442;2023-02-01T01:38:03;30.00;26.00;16.00
44933;PMS3003;30667;43.614;1.442;2023-02-01T01:40:29;27.50;25.00;17.00
44933;PMS3003;30667;43.614;1.442;2023-02-01T01:42:55;29.00;28.20;18.00
44933;PMS3003;30667;43.614;1.442;2023-02-01T01:45:25;29.60;27.40;19.00
44933;PMS3003;30667;43.614;1.442;2023-02-01T01:47:56;30.00;27.40;18.00
44933;PMS3003;30667;43.614;1.442;2023-02-01T01:50:26;31.00;27.40;20.00
44933;PMS3003;30667;43.614;1.442;2023-02-01T01:52:58;32.20;30.60;21.60
44933;PMS3003;30667;43.614;1.442;2023-02-01T01:55:28;36.20;30.60;20.80
44933;PMS3003;30667;43.614;1.442;2023-02-01T01:57:58;27.20;26.60;18.80
44933;PMS3003;30667;43.614;1.442;2023-02-01T02:00:27;32.20;29.60;19.00
44933;PMS3003;30667;43.614;1.442;2023-02-01T02:02:54;33.00;29.00;20.00
44933;PMS3003;30667;43.614;1.442;2023-02-01T02:05:25;29.40;28.80;20.20
44933;PMS3003;30667;43.614;1.442;2023-02-01T02:07:52;36.20;32.80;20.40
44933;PMS3003;30667;43.614;1.442;2023-02-01T02:10:21;35.80;33.00;23.00
44933;PMS3003;30667;43.614;1.442;2023-02-01T02:13:07;30.40;29.40;20.60
44933;PMS3003;30667;43.614;1.442;2023-02-01T02:15:33;31.00;28.60;19.20
44933;PMS3003;30667;43.614;1.442;2023-02-01T02:18:09;35.20;31.20;22.20
44933;PMS3003;30667;43.614;1.442;2023-02-01T02:34:17;35.00;32.40;21.00
44933;PMS3003;30667;43.614;1.442;2023-02-01T02:39:58;34.80;32.00;20.60
44933;PMS3003;30667;43.614;1.442;2023-02-01T02:51:46;33.40;28.80;20.40
44933;PMS3003;30667;43.614;1.442;2023-02-01T02:54:40;34.00;31.60;20.80
44933;PMS3003;30667;43.614;1.442;2023-02-01T02:57:25;32.20;27.60;17.80
44933;PMS3003;30667;43.614;1.442;2023-02-01T03:00:14;33.00;29.00;18.40
44933;PMS3003;30667;43.614;1.442;2023-02-01T03:03:04;29.20;26.80;18.20
44933;PMS3003;30667;43.614;1.442;2023-02-01T03:05:49;28.20;25.00;17.60
44933;PMS3003;30667;43.614;1.442;2023-02-01T03:08:25;26.25;26.00;15.75
44933;PMS3003;30667;43.614;1.442;2023-02-01T03:11:02;23.80;21.60;15.00
44933;PMS3003;30667;43.614;1.442;2023-02-01T03:16:33;16.00;15.20;10.60
44933;PMS3003;30667;43.614;1.442;2023-02-01T03:19:11;16.80;16.60;11.20
44933;PMS3003;30667;43.614;1.442;2023-02-01T03:24:11;22.40;16.20;9.60
44933;PMS3003;30667;43.614;1.442;2023-02-01T03:26:43;16.20;16.00;10.40
44933;PMS3003;30667;43.614;1.442;2023-02-01T03:29:16;16.00;15.20;8.20
44933;PMS3003;30667;43.614;1.442;2023-02-01T03:31:47;17.80;16.80;10.60
44933;PMS3003;30667;43.614;1.442;2023-02-01T03:34:13;17.00;15.40;8.40
44933;PMS3003;30667;43.614;1.442;2023-02-01T03:36:45;17.50;16.25;9.00
44933;PMS3003;30667;43.614;1.442;2023-02-01T03:41:56;19.00;16.20;10.00
44933;PMS3003;30667;43.614;1.442;2023-02-01T03:47:03;15.00;14.60;8.00
44933;PMS3003;30667;43.614;1.442;2023-02-01T03:49:34;13.80;13.80;8.40
44933;PMS3003;30667;43.614;1.442;2023-02-01T03:52:03;16.20;13.20;8.00
44933;PMS3003;30667;43.614;1.442;2023-02-01T03:54:31;16.20;12.00;7.80
44933;PMS3003;30667;43.614;1.442;2023-02-01T03:56:59;15.60;15.00;8.00
44933;PMS3003;30667;43.614;1.442;2023-02-01T03:59:30;15.00;14.40;8.00
44933;PMS3003;30667;43.614;1.442;2023-02-01T04:01:55;16.00;15.00;8.00
44933;PMS3003;30667;43.614;1.442;2023-02-01T04:04:20;11.00;11.00;5.50
44933;PMS3003;30667;43.614;1.442;2023-02-01T04:06:47;12.00;12.00;6.75
44933;PMS3003;30667;43.614;1.442;2023-02-01T04:09:13;12.40;11.80;6.80
44933;PMS3003;30667;43.614;1.442;2023-02-01T04:11:38;12.75;11.50;5.75
44933;PMS3003;30667;43.614;1.442;2023-02-01T04:14:03;11.25;11.25;5.25
44933;PMS3003;30667;43.614;1.442;2023-02-01T04:16:30;10.25;10.25;5.75
44933;PMS3003;30667;43.614;1.442;2023-02-01T04:18:56;14.60;11.20;5.20
44933;PMS3003;30667;43.614;1.442;2023-02-01T04:21:23;12.20;12.00;6.80
44933;PMS3003;30667;43.614;1.442;2023-02-01T04:23:52;10.20;10.20;5.00
44933;PMS3003;30667;43.614;1.442;2023-02-01T04:26:18;11.80;9.20;5.00
44933;PMS3003;30667;43.614;1.442;2023-02-01T04:28:44;8.00;8.00;4.00
44933;PMS3003;30667;43.614;1.442;2023-02-01T04:31:12;9.80;9.00;4.00
44933;PMS3003;30667;43.614;1.442;2023-02-01T04:33:41;8.60;8.20;4.20
44933;PMS3003;30667;43.614;1.442;2023-02-01T04:36:07;8.20;7.60;2.40
44933;PMS3003;30667;43.614;1.442;2023-02-01T04:38:33;7.25;5.50;2.00
44933;PMS3003;30667;43.614;1.442;2023-02-01T04:40:58;6.25;6.25;3.00
44933;PMS3003;30667;43.614;1.442;2023-02-01T04:43:24;10.20;7.60;4.00
44933;PMS3003;30667;43.614;1.442;2023-02-01T04:45:50;9.00;8.00;3.50
44933;PMS3003;30667;43.614;1.442;2023-02-01T04:48:16;7.80;6.80;4.00
44933;PMS3003;30667;43.614;1.442;2023-02-01T04:50:45;7.20;7.20;4.00
44933;PMS3003;30667;43.614;1.442;2023-02-01T04:53:13;7.40;6.80;2.00
44933;PMS3003;30667;43.614;1.442;2023-02-01T04:55:42;9.00;8.00;2.00
44933;PMS3003;30667;43.614;1.442;2023-02-01T04:58:08;7.00;5.00;1.20
44933;PMS3003;30667;43.614;1.442;2023-02-01T05:00:33;7.20;7.20;3.20
44933;PMS3003;30667;43.614;1.442;2023-02-01T05:02:59;7.50;7.50;2.00
44933;PMS3003;30667;43.614;1.442;2023-02-01T05:05:24;7.00;7.00;2.00
44933;PMS3003;30667;43.614;1.442;2023-02-01T05:07:51;8.20;6.20;2.00
44933;PMS3003;30667;43.614;1.442;2023-02-01T05:10:16;8.50;8.00;2.00
44933;PMS3003;30667;43.614;1.442;2023-02-01T05:12:43;7.25;7.00;4.00
44933;PMS3003;30667;43.614;1.442;2023-02-01T05:15:27;7.40;6.80;2.40
44933;PMS3003;30667;43.614;1.442;2023-02-01T05:17:53;5.00;5.00;2.00
44933;PMS3003;30667;43.614;1.442;2023-02-01T05:20:18;5.75;5.75;2.00
44933;PMS3003;30667;43.614;1.442;2023-02-01T05:22:44;8.00;7.00;3.50
44933;PMS3003;30667;43.614;1.442;2023-02-01T05:25:09;5.50;5.50;2.00
44933;PMS3003;30667;43.614;1.442;2023-02-01T05:27:35;8.00;7.00;4.00
44933;PMS3003;30667;43.614;1.442;2023-02-01T05:30:00;5.00;5.00;2.00
44933;PMS3003;30667;43.614;1.442;2023-02-01T05:32:27;8.60;6.40;2.00
44933;PMS3003;30667;43.614;1.442;2023-02-01T05:34:52;5.00;5.00;2.00
44933;PMS3003;30667;43.614;1.442;2023-02-01T05:37:18;7.50;7.25;4.00
44933;PMS3003;30667;43.614;1.442;2023-02-01T05:39:43;8.50;7.00;2.00
44933;PMS3003;30667;43.614;1.442;2023-02-01T05:42:09;9.75;8.25;3.00
44933;PMS3003;30667;43.614;1.442;2023-02-01T05:44:34;9.00;8.00;3.00
44933;PMS3003;30667;43.614;1.442;2023-02-01T05:46:59;6.75;5.75;2.50
44933;PMS3003;30667;43.614;1.442;2023-02-01T05:49:25;7.25;7.00;4.00
44933;PMS3003;30667;43.614;1.442;2023-02-01T05:51:50;5.50;5.50;2.00
44933;PMS3003;30667;43.614;1.442;2023-02-01T05:54:16;8.00;7.00;2.00
44933;PMS3003;30667;43.614;1.442;2023-02-01T05:56:41;8.50;8.25;4.00
44933;PMS3003;30667;43.614;1.442;2023-02-01T05:59:06;5.00;5.00;2.00
44933;PMS3003;30667;43.614;1.442;2023-02-01T06:01:32;8.00;8.00;4.00
44933;PMS3003;30667;43.614;1.442;2023-02-01T06:03:58;6.00;6.00;4.00
44933;PMS3003;30667;43.614;1.442;2023-02-01T06:06:23;8.00;7.00;2.00
44933;PMS3003;30667;43.614;1.442;2023-02-01T06:08:48;8.00;5.75;2.50
44933;PMS3003;30667;43.614;1.442;2023-02-01T06:11:14;6.00;5.50;2.00
44933;PMS3003;30667;43.614;1.442;2023-02-01T06:13:39;8.25;6.00;4.00
44933;PMS3003;30667;43.614;1.442;2023-02-01T06:16:05;11.00;8.75;4.00
44933;PMS3003;30667;43.614;1.442;2023-02-01T06:18:32;9.80;6.80;4.00
44933;PMS3003;30667;43.614;1.442;2023-02-01T06:20:59;8.60;8.00;4.00
44933;PMS3003;30667;43.614;1.442;2023-02-01T06:23:25;8.40;8.40;4.00
44933;PMS3003;30667;43.614;1.442;2023-02-01T06:25:51;8.00;8.00;4.00
44933;PMS3003;30667;43.614;1.442;2023-02-01T06:28:28;10.20;9.00;4.20
44933;PMS3003;30667;43.614;1.442;2023-02-01T06:30:54;10.60;8.40;4.00
44933;PMS3003;30667;43.614;1.442;2023-02-01T06:33:19;8.25;8.00;2.00
44933;PMS3003;30667;43.614;1.442;2023-02-01T06:35:45;9.00;8.00;4.50
44933;PMS3003;30667;43.614;1.442;2023-02-01T06:38:10;9.00;6.25;4.00
44933;PMS3003;30667;43.614;1.442;2023-02-01T06:40:37;14.20;9.80;4.60
44933;PMS3003;30667;43.614;1.442;2023-02-01T06:43:02;12.00;9.00;4.00
44933;PMS3003;30667;43.614;1.442;2023-02-01T06:45:28;9.00;9.00;4.80
44933;PMS3003;30667;43.614;1.442;2023-02-01T06:47:54;11.00;8.75;4.00
44933;PMS3003;30667;43.614;1.442;2023-02-01T06:50:19;10.75;8.00;4.00
44933;PMS3003;30667;43.614;1.442;2023-02-01T06:52:45;9.50;8.00;4.00
44933;PMS3003;30667;43.614;1.442;2023-02-01T06:55:11;11.00;9.00;5.00
44933;PMS3003;30667;43.614;1.442;2023-02-01T06:57:36;9.00;8.50;4.50
44933;PMS3003;30667;43.614;1.442;2023-02-01T07:00:02;15.00;11.25;6.00
44933;PMS3003;30667;43.614;1.442;2023-02-01T07:02:28;11.20;10.80;5.00
44933;PMS3003;30667;43.614;1.442;2023-02-01T07:04:54;12.50;11.75;5.00
44933;PMS3003;30667;43.614;1.442;2023-02-01T07:07:19;12.00;11.50;5.00
44933;PMS3003;30667;43.614;1.442;2023-02-01T07:09:47;13.80;11.40;5.00
44933;PMS3003;30667;43.614;1.442;2023-02-01T07:12:15;11.20;10.00;6.00
44933;PMS3003;30667;43.614;1.442;2023-02-01T07:14:41;12.75;11.75;5.00
44933;PMS3003;30667;43.614;1.442;2023-02-01T07:17:06;12.00;11.00;5.00
44933;PMS3003;30667;43.614;1.442;2023-02-01T07:19:32;12.00;11.50;5.00
44933;PMS3003;30667;43.614;1.442;2023-02-01T07:21:57;13.00;11.50;5.00
44933;PMS3003;30667;43.614;1.442;2023-02-01T07:24:22;13.25;11.00;5.00
44933;PMS3003;30667;43.614;1.442;2023-02-01T07:26:48;10.50;10.50;5.00
44933;PMS3003;30667;43.614;1.442;2023-02-01T07:29:15;10.60;10.60;5.20
44933;PMS3003;30667;43.614;1.442;2023-02-01T07:31:42;12.60;10.80;5.60
44933;PMS3003;30667;43.614;1.442;2023-02-01T07:34:07;12.25;9.00;5.00
44933;PMS3003;30667;43.614;1.442;2023-02-01T07:36:32;11.00;11.00;5.00
44933;PMS3003;30667;43.614;1.442;2023-02-01T07:38:59;11.80;11.20;5.00
44933;PMS3003;30667;43.614;1.442;2023-02-01T07:41:25;14.25;12.00;6.00
44933;PMS3003;30667;43.614;1.442;2023-02-01T07:43:53;12.00;11.00;5.00
44933;PMS3003;30667;43.614;1.442;2023-02-01T07:46:19;12.00;12.00;5.80
44933;PMS3003;30667;43.614;1.442;2023-02-01T07:48:44;11.75;10.00;6.00
44933;PMS3003;30667;43.614;1.442;2023-02-01T07:51:10;12.25;9.75;5.00
44933;PMS3003;30667;43.614;1.442;2023-02-01T07:53:38;12.00;11.20;5.00
44933;PMS3003;30667;43.614;1.442;2023-02-01T07:56:08;13.60;12.20;7.20
44933;PMS3003;30667;43.614;1.442;2023-02-01T07:58:39;17.80;13.00;8.00
44933;PMS3003;30667;43.614;1.442;2023-02-01T08:01:05;13.00;11.00;6.00
44933;PMS3003;30667;43.614;1.442;2023-02-01T08:03:46;13.60;12.20;6.60
44933;PMS3003;30667;43.614;1.442;2023-02-01T08:06:13;12.40;12.40;5.80
44933;PMS3003;30667;43.614;1.442;2023-02-01T08:08:38;11.50;11.00;5.00
44933;PMS3003;30667;43.614;1.442;2023-02-01T08:11:04;10.25;8.75;4.50
44933;PMS3003;30667;43.614;1.442;2023-02-01T08:13:31;9.00;9.00;5.00
44933;PMS3003;30667;43.614;1.442;2023-02-01T08:16:01;8.60;8.40;4.60
44933;PMS3003;30667;43.614;1.442;2023-02-01T08:18:28;9.00;8.80;4.20
44933;PMS3003;30667;43.614;1.442;2023-02-01T08:20:54;11.60;10.80;5.00
44933;PMS3003;30667;43.614;1.442;2023-02-01T08:23:20;9.75;9.75;5.00
44933;PMS3003;30667;43.614;1.442;2023-02-01T08:25:47;10.20;9.20;4.80
44933;PMS3003;30667;43.614;1.442;2023-02-01T08:28:12;12.40;10.80;6.00
44933;PMS3003;30667;43.614;1.442;2023-02-01T08:30:39;11.60;11.20;5.60
44933;PMS3003;30667;43.614;1.442;2023-02-01T08:33:05;9.00;9.00;4.00
44933;PMS3003;30667;43.614;1.442;2023-02-01T08:35:37;11.40;9.20;4.00
44933;PMS3003;30667;43.614;1.442;2023-02-01T08:38:03;9.00;8.00;3.60
44933;PMS3003;30667;43.614;1.442;2023-02-01T08:40:29;7.00;7.00;4.00
44933;PMS3003;30667;43.614;1.442;2023-02-01T08:42:55;8.80;8.00;4.00
44933;PMS3003;30667;43.614;1.442;2023-02-01T08:45:23;8.60;8.60;4.00
44933;PMS3003;30667;43.614;1.442;2023-02-01T08:47:51;10.40;9.00;5.00
44933;PMS3003;30667;43.614;1.442;2023-02-01T08:50:17;9.00;9.00;4.00
44933;PMS3003;30667;43.614;1.442;2023-02-01T08:52:44;6.60;6.60;2.80
44933;PMS3003;30667;43.614;1.442;2023-02-01T08:55:10;10.40;7.00;2.00
44933;PMS3003;30667;43.614;1.442;2023-02-01T08:57:36;9.00;9.00;4.00
44933;PMS3003;30667;43.614;1.442;2023-02-01T09:00:02;7.75;7.75;3.00
44933;PMS3003;30667;43.614;1.442;2023-02-01T09:02:29;8.40;7.60;4.00
44933;PMS3003;30667;43.614;1.442;2023-02-01T09:04:55;10.00;8.00;2.00
44933;PMS3003;30667;43.614;1.442;2023-02-01T09:07:21;5.80;5.00;2.00
44933;PMS3003;30667;43.614;1.442;2023-02-01T09:09:47;6.00;6.00;2.00
44933;PMS3003;30667;43.614;1.442;2023-02-01T09:12:12;8.00;6.00;2.00
44933;PMS3003;30667;43.614;1.442;2023-02-01T09:14:38;5.25;5.25;2.00
44933;PMS3003;30667;43.614;1.442;2023-02-01T09:17:03;7.00;6.25;2.00
44933;PMS3003;30667;43.614;1.442;2023-02-01T09:19:30;7.60;7.20;2.80
44933;PMS3003;30667;43.614;1.442;2023-02-01T09:21:56;9.00;5.80;2.00
44933;PMS3003;30667;43.614;1.442;2023-02-01T09:24:21;6.25;6.25;2.00
44933;PMS3003;30667;43.614;1.442;2023-02-01T09:26:47;9.25;8.00;4.00
44933;PMS3003;30667;43.614;1.442;2023-02-01T09:29:13;6.00;5.75;2.00
44933;PMS3003;30667;43.614;1.442;2023-02-01T09:31:38;6.75;5.75;2.00
44933;PMS3003;30667;43.614;1.442;2023-02-01T09:34:05;6.00;5.00;1.00
44933;PMS3003;30667;43.614;1.442;2023-02-01T09:36:31;7.00;7.00;1.60
44933;PMS3003;30667;43.614;1.442;2023-02-01T09:38:57;6.00;6.00;2.00
44933;PMS3003;30667;43.614;1.442;2023-02-01T09:41:29;7.80;6.00;2.00
44933;PMS3003;30667;43.614;1.442;2023-02-01T09:46:39;4.20;4.00;1.00
44933;PMS3003;30667;43.614;1.442;2023-02-01T09:49:05;5.50;5.00;2.00
44933;PMS3003;30667;43.614;1.442;2023-02-01T09:51:41;4.60;4.20;1.20
44933;PMS3003;30667;43.614;1.442;2023-02-01T09:56:47;7.60;5.80;2.00
44933;PMS3003;30667;43.614;1.442;2023-02-01T10:01:56;10.00;6.60;1.80
44933;PMS3003;30667;43.614;1.442;2023-02-01T10:04:24;6.60;6.00;2.00
44933;PMS3003;30667;43.614;1.442;2023-02-01T10:09:51;8.00;8.00;4.00
44933;PMS3003;30667;43.614;1.442;2023-02-01T10:22:45;6.00;5.00;2.00
44933;PMS3003;30667;43.614;1.442;2023-02-01T10:25:34;9.00;5.60;1.40
44933;PMS3003;30667;43.614;1.442;2023-02-01T10:28:03;6.00;5.00;2.00
44933;PMS3003;30667;43.614;1.442;2023-02-01T10:30:38;6.00;5.00;1.25
44933;PMS3003;30667;43.614;1.442;2023-02-01T10:33:18;4.80;2.40;1.00
44933;PMS3003;30667;43.614;1.442;2023-02-01T10:35:50;4.00;3.60;1.00
44933;PMS3003;30667;43.614;1.442;2023-02-01T10:38:27;5.80;5.00;1.60
44933;PMS3003;30667;43.614;1.442;2023-02-01T10:40:55;5.00;5.00;1.80
44933;PMS3003;30667;43.614;1.442;2023-02-01T10:43:26;6.00;5.40;1.80
44933;PMS3003;30667;43.614;1.442;2023-02-01T10:45:51;4.50;4.50;1.25
44933;PMS3003;30667;43.614;1.442;2023-02-01T10:48:17;6.50;6.00;3.00
44933;PMS3003;30667;43.614;1.442;2023-02-01T11:00:47;9.00;7.60;2.40
44933;PMS3003;30667;43.614;1.442;2023-02-01T11:06:02;7.80;4.80;1.00
44933;PMS3003;30667;43.614;1.442;2023-02-01T11:08:50;5.60;4.60;1.00
44933;PMS3003;30667;43.614;1.442;2023-02-01T11:16:50;4.80;4.20;1.00
44933;PMS3003;30667;43.614;1.442;2023-02-01T11:19:18;5.40;5.00;2.00
44933;PMS3003;30667;43.614;1.442;2023-02-01T11:21:44;7.00;7.00;3.00
44933;PMS3003;30667;43.614;1.442;2023-02-01T11:24:27;4.80;4.80;1.40
44933;PMS3003;30667;43.614;1.442;2023-02-01T11:26:56;6.40;5.40;2.40
44933;PMS3003;30667;43.614;1.442;2023-02-01T11:29:24;8.00;6.00;2.00
44933;PMS3003;30667;43.614;1.442;2023-02-01T11:31:57;10.00;7.60;4.00
44933;PMS3003;30667;43.614;1.442;2023-02-01T11:34:25;9.00;8.00;4.00
44933;PMS3003;30667;43.614;1.442;2023-02-01T11:42:55;9.00;8.20;5.00
44933;PMS3003;30667;43.614;1.442;2023-02-01T11:45:32;10.00;8.40;2.80
44933;PMS3003;30667;43.614;1.442;2023-02-01T11:48:00;5.60;5.20;2.00
44933;PMS3003;30667;43.614;1.442;2023-02-01T12:01:31;9.80;9.00;4.00
44933;PMS3003;30667;43.614;1.442;2023-02-01T12:14:54;11.60;11.60;5.80
44933;PMS3003;30667;43.614;1.442;2023-02-01T12:33:52;13.20;11.60;5.00
44933;PMS3003;30667;43.614;1.442;2023-02-01T12:39:30;11.00;9.60;4.80
44933;PMS3003;30667;43.614;1.442;2023-02-01T12:47:53;10.20;9.40;4.60
44933;PMS3003;30667;43.614;1.442;2023-02-01T12:50:27;13.60;9.80;5.00
44933;PMS3003;30667;43.614;1.442;2023-02-01T12:56:03;9.00;8.00;2.00
44933;PMS3003;30667;43.614;1.442;2023-02-01T13:01:25;8.40;5.80;2.40
44933;PMS3003;30667;43.614;1.442;2023-02-01T13:03:59;4.80;4.80;1.00
44933;PMS3003;30667;43.614;1.442;2023-02-01T13:06:35;6.80;6.00;2.00
44933;PMS3003;30667;43.614;1.442;2023-02-01T13:11:40;8.00;8.00;4.00
44933;PMS3003;30667;43.614;1.442;2023-02-01T13:17:00;5.60;5.60;2.00
44933;PMS3003;30667;43.614;1.442;2023-02-01T13:19:34;4.00;4.00;0.60
44933;PMS3003;30667;43.614;1.442;2023-02-01T13:22:05;3.60;2.80;0.40
44933;PMS3003;30667;43.614;1.442;2023-02-01T13:24:39;5.60;5.20;1.20
44933;PMS3003;30667;43.614;1.442;2023-02-01T13:27:13;7.80;6.20;1.80
44933;PMS3003;30667;43.614;1.442;2023-02-01T13:29:46;6.00;5.00;2.00
44933;PMS3003;30667;43.614;1.442;2023-02-01T13:32:54;5.00;4.60;1.00
44933;PMS3003;30667;43.614;1.442;2023-02-01T13:43:50;8.00;4.00;1.20
44933;PMS3003;30667;43.614;1.442;2023-02-01T13:46:18;5.00;4.60;1.00
44933;PMS3003;30667;43.614;1.442;2023-02-01T13:48:51;4.20;4.20;1.40
44933;PMS3003;30667;43.614;1.442;2023-02-01T13:51:35;5.40;5.00;2.00
44933;PMS3003;30667;43.614;1.442;2023-02-01T13:54:05;10.60;7.00;1.80
44933;PMS3003;30667;43.614;1.442;2023-02-01T13:56:39;15.50;10.25;5.50
44933;PMS3003;30667;43.614;1.442;2023-02-01T14:05:11;5.20;5.20;1.00
44933;PMS3003;30667;43.614;1.442;2023-02-01T14:07:41;5.60;5.60;1.60
44933;PMS3003;30667;43.614;1.442;2023-02-01T14:21:20;9.00;8.00;3.20
44933;PMS3003;30667;43.614;1.442;2023-02-01T14:23:57;8.40;8.00;4.00
44933;PMS3003;30667;43.614;1.442;2023-02-01T14:31:41;10.00;8.00;4.00
44933;PMS3003;30667;43.614;1.442;2023-02-01T14:34:29;8.20;7.60;3.60
44933;PMS3003;30667;43.614;1.442;2023-02-01T14:44:49;12.00;9.60;5.00
44933;PMS3003;30667;43.614;1.442;2023-02-01T14:49:55;9.00;9.00;5.00
44933;PMS3003;30667;43.614;1.442;2023-02-01T14:52:23;9.60;9.00;5.20
44933;PMS3003;30667;43.614;1.442;2023-02-01T14:54:55;7.60;7.60;4.00
44933;PMS3003;30667;43.614;1.442;2023-02-01T14:57:26;8.20;8.00;4.00
44933;PMS3003;30667;43.614;1.442;2023-02-01T15:00:14;8.00;6.80;4.00
44933;PMS3003;30667;43.614;1.442;2023-02-01T15:02:43;9.20;8.40;4.00
44933;PMS3003;30667;43.614;1.442;2023-02-01T15:05:31;10.00;9.00;4.60
44933;PMS3003;30667;43.614;1.442;2023-02-01T15:08:13;9.60;8.80;4.40
44933;PMS3003;30667;43.614;1.442;2023-02-01T15:10:44;9.00;8.60;4.00
44933;PMS3003;30667;43.614;1.442;2023-02-01T15:13:26;11.00;9.20;4.80
44933;PMS3003;30667;43.614;1.442;2023-02-01T15:15:59;7.20;7.20;3.20
44933;PMS3003;30667;43.614;1.442;2023-02-01T15:18:25;7.60;6.00;4.00
44933;PMS3003;30667;43.614;1.442;2023-02-01T15:20:57;7.50;6.00;2.00
44933;PMS3003;30667;43.614;1.442;2023-02-01T15:23:25;8.00;6.00;3.20
44933;PMS3003;30667;43.614;1.442;2023-02-01T15:25:51;5.60;5.00;2.00
44933;PMS3003;30667;43.614;1.442;2023-02-01T15:28:16;5.00;5.00;2.00
44933;PMS3003;30667;43.614;1.442;2023-02-01T15:33:26;8.40;6.60;4.00
44933;PMS3003;30667;43.614;1.442;2023-02-01T15:35:53;7.60;6.40;3.20
44933;PMS3003;30667;43.614;1.442;2023-02-01T15:44:02;9.00;9.00;4.00
44933;PMS3003;30667;43.614;1.442;2023-02-01T15:46:49;6.20;5.00;2.00
44933;PMS3003;30667;43.614;1.442;2023-02-01T15:51:54;6.00;5.20;2.00
44933;PMS3003;30667;43.614;1.442;2023-02-01T15:54:41;7.20;6.00;2.80
44933;PMS3003;30667;43.614;1.442;2023-02-01T15:57:11;6.20;5.00;2.00
44933;PMS3003;30667;43.614;1.442;2023-02-01T15:59:45;5.00;5.00;2.00
44933;PMS3003;30667;43.614;1.442;2023-02-01T16:05:01;7.80;6.40;3.20
44933;PMS3003;30667;43.614;1.442;2023-02-01T16:07:28;8.00;6.00;2.00
44933;PMS3003;30667;43.614;1.442;2023-02-01T16:10:00;6.60;5.00;2.00
44933;PMS3003;30667;43.614;1.442;2023-02-01T16:15:08;8.75;8.00;3.50
44933;PMS3003;30667;43.614;1.442;2023-02-01T16:17:34;4.00;4.00;1.00
44933;PMS3003;30667;43.614;1.442;2023-02-01T16:19:59;6.00;6.00;4.00
44933;PMS3003;30667;43.614;1.442;2023-02-01T16:22:25;5.75;5.00;2.00
44933;PMS3003;30667;43.614;1.442;2023-02-01T16:24:50;5.00;5.00;3.00
44933;PMS3003;30667;43.614;1.442;2023-02-01T16:27:16;6.00;5.00;1.50
44933;PMS3003;30667;43.614;1.442;2023-02-01T16:29:41;4.75;4.75;1.00
44933;PMS3003;30667;43.614;1.442;2023-02-01T16:32:10;6.00;5.00;2.00
44933;PMS3003;30667;43.614;1.442;2023-02-01T16:34:45;4.40;4.40;1.60
44933;PMS3003;30667;43.614;1.442;2023-02-01T16:37:16;8.80;8.20;4.00
44933;PMS3003;30667;43.614;1.442;2023-02-01T16:39:44;5.20;5.00;1.40
44933;PMS3003;30667;43.614;1.442;2023-02-01T16:42:11;5.00;4.50;1.50
44933;PMS3003;30667;43.614;1.442;2023-02-01T16:44:38;5.00;4.60;1.40
44933;PMS3003;30667;43.614;1.442;2023-02-01T16:47:17;6.40;6.00;2.80
44933;PMS3003;30667;43.614;1.442;2023-02-01T16:49:45;6.60;6.60;4.00
44933;PMS3003;30667;43.614;1.442;2023-02-01T16:52:16;12.00;8.80;4.00
44933;PMS3003;30667;43.614;1.442;2023-02-01T16:54:44;10.00;9.00;4.40
44933;PMS3003;30667;43.614;1.442;2023-02-01T16:57:11;10.75;8.00;3.50
44933;PMS3003;30667;43.614;1.442;2023-02-01T16:59:38;5.00;5.00;1.00
44933;PMS3003;30667;43.614;1.442;2023-02-01T17:02:04;4.60;4.40;1.60
44933;PMS3003;30667;43.614;1.442;2023-02-01T17:04:29;4.00;4.00;1.00
44933;PMS3003;30667;43.614;1.442;2023-02-01T17:06:55;5.75;5.00;1.25
44933;PMS3003;30667;43.614;1.442;2023-02-01T17:09:20;8.00;6.00;2.00
44933;PMS3003;30667;43.614;1.442;2023-02-01T17:11:46;4.50;4.50;1.00
44933;PMS3003;30667;43.614;1.442;2023-02-01T17:16:39;4.00;4.00;1.00
44933;PMS3003;30667;43.614;1.442;2023-02-01T17:19:10;4.00;4.00;1.00
44933;PMS3003;30667;43.614;1.442;2023-02-01T17:21:48;5.00;5.00;2.00
44933;PMS3003;30667;43.614;1.442;2023-02-01T17:24:17;3.20;3.20;1.00
44933;PMS3003;30667;43.614;1.442;2023-02-01T17:26:45;3.60;3.20;1.00
44933;PMS3003;30667;43.614;1.442;2023-02-01T17:29:10;4.50;4.00;1.00
44933;PMS3003;30667;43.614;1.442;2023-02-01T17:31:38;5.00;4.60;1.00
44933;PMS3003;30667;43.614;1.442;2023-02-01T17:34:08;4.00;4.00;1.00
44933;PMS3003;30667;43.614;1.442;2023-02-01T17:36:35;4.20;4.00;1.00
44933;PMS3003;30667;43.614;1.442;2023-02-01T17:39:00;6.00;5.25;2.00
44933;PMS3003;30667;43.614;1.442;2023-02-01T17:41:27;6.60;5.40;1.00